sensor_id;sensor_type;location;lat;lon;timestamp;pressure;altitude;pressure_sealevel;temperature;humidity
58973;BME280;44750;52.040;7.472;2023-03-21T00:03:50;100493.13;;;9.68;47.14
58973;BME280;44750;52.040;7.472;2023-03-21T00:08:50;100500.78;;;9.73;47.39
58973;BME280;44750;52.040;7.472;2023-03-21T00:13:50;100488.28;;;9.72;47.69
58973;BME280;44750;52.040;7.472;2023-03-21T00:18:52;100492.22;;;9.78;47.11
58973;BME280;44750;52.040;7.472;2023-03-21T00:23:53;100483.78;;;9.81;48.19
58973;BME280;44750;52.040;7.472;2023-03-21T00:28:54;100450.59;;;9.70;48.96
58973;BME280;44750;52.040;7.472;2023-03-21T00:33:54;100473.59;;;9.75;47.85
58973;BME280;44750;52.040;7.472;2023-03-21T00:38:54;100463.25;;;9.70;47.22
58973;BME280;44750;52.040;7.472;2023-03-21T00:43:55;100476.84;;;9.78;45.59
58973;BME280;44750;52.040;7.472;2023-03-21T00:48:55;100476.16;;;9.76;45.29
58973;BME280;44750;52.040;7.472;2023-03-21T00:53:58;100485.66;;;9.80;44.02
58973;BME280;44750;52.040;7.472;2023-03-21T00:58:58;100496.16;;;9.83;42.72
58973;BME280;44750;52.040;7.472;2023-03-21T01:03:59;100502.72;;;9.81;40.91
58973;BME280;44750;52.040;7.472;2023-03-21T01:09:00;100498.63;;;9.77;38.84
58973;BME280;44750;52.040;7.472;2023-03-21T01:14:00;100509.66;;;9.83;36.26
58973;BME280;44750;52.040;7.472;2023-03-21T01:19:01;100502.09;;;9.69;34.41
58973;BME280;44750;52.040;7.472;2023-03-21T01:24:02;100524.66;;;9.78;31.11
58973;BME280;44750;52.040;7.472;2023-03-21T01:29:04;100538.72;;;9.81;29.12
58973;BME280;44750;52.040;7.472;2023-03-21T01:34:04;100541.72;;;9.78;27.28
58973;BME280;44750;52.040;7.472;2023-03-21T01:39:04;100548.66;;;9.81;25.08
58973;BME280;44750;52.040;7.472;2023-03-21T01:44:05;100560.03;;;9.84;22.94
58973;BME280;44750;52.040;7.472;2023-03-21T01:49:12;100561.59;;;9.87;22.13
58973;BME280;44750;52.040;7.472;2023-03-21T01:54:19;100574.28;;;9.86;20.53
58973;BME280;44750;52.040;7.472;2023-03-21T01:59:31;100565.59;;;9.83;18.91
58973;BME280;44750;52.040;7.472;2023-03-21T02:04:34;100575.47;;;9.74;16.90
58973;BME280;44750;52.040;7.472;2023-03-21T02:09:38;100574.47;;;9.75;14.57
58973;BME280;44750;52.040;7.472;2023-03-21T02:14:41;100582.41;;;9.77;12.67
58973;BME280;44750;52.040;7.472;2023-03-21T02:25:55;100591.78;;;9.82;9.01
58973;BME280;44750;52.040;7.472;2023-03-21T02:47:02;100600.81;;;9.73;2.64
58973;BME280;44750;52.040;7.472;2023-03-21T02:52:08;100618.69;;;9.74;1.22
58973;BME280;44750;52.040;7.472;2023-03-21T02:57:11;100624.28;;;9.73;0.00
58973;BME280;44750;52.040;7.472;2023-03-21T03:02:12;100635.22;;;9.71;0.00
58973;BME280;44750;52.040;7.472;2023-03-21T03:07:21;100638.00;;;9.61;0.00
58973;BME280;44750;52.040;7.472;2023-03-21T03:12:29;100663.56;;;9.67;0.00
58973;BME280;44750;52.040;7.472;2023-03-21T03:22:41;100676.13;;;9.48;0.00
58973;BME280;44750;52.040;7.472;2023-03-21T03:27:45;100693.47;;;9.56;0.00
58973;BME280;44750;52.040;7.472;2023-03-21T03:32:53;100698.91;;;9.46;0.00
58973;BME280;44750;52.040;7.472;2023-03-21T03:37:59;100715.69;;;9.49;0.00
58973;BME280;44750;52.040;7.472;2023-03-21T03:43:04;100725.88;;;9.56;0.00
58973;BME280;44750;52.040;7.472;2023-03-21T03:48:14;100747.50;;;9.56;0.00
58973;BME280;44750;52.040;7.472;2023-03-21T03:53:31;100741.56;;;9.52;0.00
58973;BME280;44750;52.040;7.472;2023-03-21T03:58:34;100744.25;;;9.52;0.00
58973;BME280;44750;52.040;7.472;2023-03-21T04:03:36;100761.44;;;9.61;0.00
58973;BME280;44750;52.040;7.472;2023-03-21T04:08:38;100750.94;;;9.58;0.00
58973;BME280;44750;52.040;7.472;2023-03-21T04:13:39;100763.16;;;9.62;0.00
58973;BME280;44750;52.040;7.472;2023-03-21T04:18:40;100748.94;;;9.50;0.00
58973;BME280;44750;52.040;7.472;2023-03-21T04:23:40;100759.34;;;9.54;0.00
58973;BME280;44750;52.040;7.472;2023-03-21T04:28:41;100762.16;;;9.63;0.00
58973;BME280;44750;52.040;7.472;2023-03-21T04:33:41;100757.44;;;9.65;0.00
58973;BME280;44750;52.040;7.472;2023-03-21T04:38:41;100737.00;;;9.62;0.00
58973;BME280;44750;52.040;7.472;2023-03-21T04:43:41;100742.25;;;9.64;0.00
58973;BME280;44750;52.040;7.472;2023-03-21T04:48:41;100729.84;;;9.71;0.00
58973;BME280;44750;52.040;7.472;2023-03-21T04:53:42;100720.88;;;9.70;0.00
58973;BME280;44750;52.040;7.472;2023-03-21T04:58:42;100721.56;;;9.73;0.00
58973;BME280;44750;52.040;7.472;2023-03-21T05:03:42;100717.03;;;9.73;0.00
58973;BME280;44750;52.040;7.472;2023-03-21T05:08:42;100711.63;;;9.73;0.00
58973;BME280;44750;52.040;7.472;2023-03-21T05:13:43;100706.22;;;9.73;0.00
58973;BME280;44750;52.040;7.472;2023-03-21T05:18:43;100696.09;;;9.75;0.00
58973;BME280;44750;52.040;7.472;2023-03-21T05:23:43;100688.59;;;9.69;0.00
58973;BME280;44750;52.040;7.472;2023-03-21T05:28:44;100677.78;;;9.69;0.00
58973;BME280;44750;52.040;7.472;2023-03-21T05:33:44;100679.03;;;9.75;0.00
58973;BME280;44750;52.040;7.472;2023-03-21T05:38:45;100674.63;;;9.74;0.00
58973;BME280;44750;52.040;7.472;2023-03-21T05:43:46;100656.59;;;9.64;0.00
58973;BME280;44750;52.040;7.472;2023-03-21T05:48:46;100658.06;;;9.59;0.00
58973;BME280;44750;52.040;7.472;2023-03-21T05:53:46;100690.13;;;9.71;0.00
58973;BME280;44750;52.040;7.472;2023-03-21T05:58:46;100692.00;;;9.71;0.00
58973;BME280;44750;52.040;7.472;2023-03-21T06:03:47;100685.19;;;9.67;0.00
58973;BME280;44750;52.040;7.472;2023-03-21T06:08:47;100682.94;;;9.62;0.00
58973;BME280;44750;52.040;7.472;2023-03-21T06:13:47;100705.09;;;9.66;0.00
58973;BME280;44750;52.040;7.472;2023-03-21T06:18:47;100713.94;;;9.58;0.00
58973;BME280;44750;52.040;7.472;2023-03-21T06:23:48;100737.56;;;9.56;0.00
58973;BME280;44750;52.040;7.472;2023-03-21T06:28:52;100754.63;;;9.57;0.00
58973;BME280;44750;52.040;7.472;2023-03-21T06:33:53;100754.06;;;9.43;0.00
58973;BME280;44750;52.040;7.472;2023-03-21T06:38:53;100790.91;;;9.44;0.00
58973;BME280;44750;52.040;7.472;2023-03-21T06:43:54;100809.00;;;9.44;0.00
58973;BME280;44750;52.040;7.472;2023-03-21T06:48:54;100832.88;;;9.48;0.00
58973;BME280;44750;52.040;7.472;2023-03-21T06:53:54;100854.91;;;9.53;0.00
58973;BME280;44750;52.040;7.472;2023-03-21T06:58:54;100865.56;;;9.55;0.00
58973;BME280;44750;52.040;7.472;2023-03-21T07:03:55;100880.94;;;9.64;0.00
58973;BME280;44750;52.040;7.472;2023-03-21T07:08:56;100887.59;;;9.70;0.00
58973;BME280;44750;52.040;7.472;2023-03-21T07:13:56;100900.28;;;9.69;0.00
58973;BME280;44750;52.040;7.472;2023-03-21T07:18:56;100916.50;;;9.69;0.00
58973;BME280;44750;52.040;7.472;2023-03-21T07:23:57;100926.19;;;9.72;0.00
58973;BME280;44750;52.040;7.472;2023-03-21T07:28:57;100945.09;;;9.72;0.00
58973;BME280;44750;52.040;7.472;2023-03-21T07:33:57;100937.41;;;9.67;0.00
58973;BME280;44750;52.040;7.472;2023-03-21T07:38:57;100954.19;;;9.71;0.00
58973;BME280;44750;52.040;7.472;2023-03-21T07:43:58;100977.69;;;9.80;0.00
58973;BME280;44750;52.040;7.472;2023-03-21T07:48:58;100964.00;;;9.82;0.00
58973;BME280;44750;52.040;7.472;2023-03-21T07:53:58;100961.47;;;9.80;0.00
58973;BME280;44750;52.040;7.472;2023-03-21T07:58:58;100954.63;;;9.76;0.00
58973;BME280;44750;52.040;7.472;2023-03-21T08:03:59;100972.56;;;9.77;0.00
58973;BME280;44750;52.040;7.472;2023-03-21T08:09:00;100983.09;;;9.80;0.00
58973;BME280;44750;52.040;7.472;2023-03-21T08:14:00;100989.06;;;9.84;0.00
58973;BME280;44750;52.040;7.472;2023-03-21T08:19:01;101009.28;;;9.99;0.00
58973;BME280;44750;52.040;7.472;2023-03-21T08:24:01;101006.44;;;10.01;0.00
58973;BME280;44750;52.040;7.472;2023-03-21T08:29:01;101005.56;;;10.00;0.00
58973;BME280;44750;52.040;7.472;2023-03-21T08:34:02;101016.09;;;10.03;0.00
58973;BME280;44750;52.040;7.472;2023-03-21T08:39:04;101014.97;;;10.06;0.00
58973;BME280;44750;52.040;7.472;2023-03-21T08:44:05;101024.94;;;10.15;0.00
58973;BME280;44750;52.040;7.472;2023-03-21T08:49:05;101042.88;;;10.26;0.00
58973;BME280;44750;52.040;7.472;2023-03-21T08:54:05;101038.47;;;10.25;0.00
58973;BME280;44750;52.040;7.472;2023-03-21T08:59:05;101037.72;;;10.33;0.00
58973;BME280;44750;52.040;7.472;2023-03-21T09:04:06;101032.78;;;10.38;0.00
58973;BME280;44750;52.040;7.472;2023-03-21T09:09:06;101026.38;;;10.39;0.00
58973;BME280;44750;52.040;7.472;2023-03-21T09:14:07;101027.66;;;10.35;0.00
58973;BME280;44750;52.040;7.472;2023-03-21T09:19:07;101035.91;;;10.43;0.00
58973;BME280;44750;52.040;7.472;2023-03-21T09:24:07;101038.06;;;10.49;0.00
58973;BME280;44750;52.040;7.472;2023-03-21T09:29:08;101053.41;;;10.68;0.00
58973;BME280;44750;52.040;7.472;2023-03-21T09:34:08;101030.63;;;10.61;0.00
58973;BME280;44750;52.040;7.472;2023-03-21T09:39:09;101033.88;;;10.65;0.00
58973;BME280;44750;52.040;7.472;2023-03-21T09:49:40;101051.59;;;10.97;0.00
58973;BME280;44750;52.040;7.472;2023-03-21T09:54:42;101026.97;;;10.90;0.00
58973;BME280;44750;52.040;7.472;2023-03-21T09:59:43;101021.13;;;10.95;0.00
58973;BME280;44750;52.040;7.472;2023-03-21T10:04:43;101019.09;;;10.97;0.00
58973;BME280;44750;52.040;7.472;2023-03-21T10:09:45;100990.91;;;10.90;0.00
58973;BME280;44750;52.040;7.472;2023-03-21T10:14:49;100969.84;;;10.83;0.00
58973;BME280;44750;52.040;7.472;2023-03-21T10:20:09;100983.34;;;10.93;0.00
58973;BME280;44750;52.040;7.472;2023-03-21T10:25:17;100961.59;;;10.85;0.00
58973;BME280;44750;52.040;7.472;2023-03-21T10:30:25;100953.22;;;10.78;0.00
58973;BME280;44750;52.040;7.472;2023-03-21T10:35:28;100950.50;;;10.78;0.00
58973;BME280;44750;52.040;7.472;2023-03-21T10:40:28;100952.91;;;10.81;0.00
58973;BME280;44750;52.040;7.472;2023-03-21T10:45:32;100960.97;;;10.91;0.00
58973;BME280;44750;52.040;7.472;2023-03-21T10:50:34;100969.19;;;10.99;0.00
58973;BME280;44750;52.040;7.472;2023-03-21T10:55:39;100973.13;;;11.15;0.00
58973;BME280;44750;52.040;7.472;2023-03-21T11:00:41;100942.09;;;11.09;0.00
58973;BME280;44750;52.040;7.472;2023-03-21T11:05:42;100940.31;;;11.18;0.00
58973;BME280;44750;52.040;7.472;2023-03-21T11:11:05;100922.50;;;11.15;0.00
58973;BME280;44750;52.040;7.472;2023-03-21T11:16:22;100935.53;;;11.30;0.00
58973;BME280;44750;52.040;7.472;2023-03-21T11:21:23;100903.00;;;11.30;0.00
58973;BME280;44750;52.040;7.472;2023-03-21T11:26:30;100866.69;;;11.23;0.00
58973;BME280;44750;52.040;7.472;2023-03-21T11:31:38;100834.13;;;11.14;0.00
58973;BME280;44750;52.040;7.472;2023-03-21T11:36:39;100815.75;;;11.08;0.00
58973;BME280;44750;52.040;7.472;2023-03-21T11:41:41;100811.56;;;11.14;0.00
58973;BME280;44750;52.040;7.472;2023-03-21T11:46:41;100804.00;;;11.17;0.00
58973;BME280;44750;52.040;7.472;2023-03-21T11:51:57;100780.28;;;11.19;0.00
58973;BME280;44750;52.040;7.472;2023-03-21T12:02:51;100779.69;;;11.26;0.00
58973;BME280;44750;52.040;7.472;2023-03-21T12:13:03;100768.44;;;11.38;0.00
58973;BME280;44750;52.040;7.472;2023-03-21T12:18:23;100747.59;;;11.39;0.00
58973;BME280;44750;52.040;7.472;2023-03-21T12:34:10;100739.75;;;11.80;0.00
58973;BME280;44750;52.040;7.472;2023-03-21T12:39:29;100723.69;;;11.87;0.00
58973;BME280;44750;52.040;7.472;2023-03-21T12:44:33;100705.91;;;11.93;0.00
58973;BME280;44750;52.040;7.472;2023-03-21T12:49:51;100699.06;;;12.07;0.00
58973;BME280;44750;52.040;7.472;2023-03-21T12:55:02;100639.84;;;12.02;0.00
58973;BME280;44750;52.040;7.472;2023-03-21T13:00:30;100600.22;;;12.09;0.00
58973;BME280;44750;52.040;7.472;2023-03-21T13:05:38;100542.53;;;12.07;0.00
58973;BME280;44750;52.040;7.472;2023-03-21T13:10:40;100446.38;;;11.93;0.00
58973;BME280;44750;52.040;7.472;2023-03-21T13:20:58;100349.19;;;12.30;0.00
58973;BME280;44750;52.040;7.472;2023-03-21T13:26:00;100270.19;;;12.16;8.20
58973;BME280;44750;52.040;7.472;2023-03-21T13:31:22;100205.63;;;12.12;15.65
58973;BME280;44750;52.040;7.472;2023-03-21T13:36:27;100187.22;;;12.30;19.03
58973;BME280;44750;52.040;7.472;2023-03-21T13:41:33;100129.78;;;12.18;22.91
58973;BME280;44750;52.040;7.472;2023-03-21T13:46:41;100109.41;;;12.23;23.85
58973;BME280;44750;52.040;7.472;2023-03-21T13:51:53;100100.50;;;12.37;23.24
58973;BME280;44750;52.040;7.472;2023-03-21T13:56:59;100079.75;;;12.44;23.03
58973;BME280;44750;52.040;7.472;2023-03-21T14:07:27;100084.63;;;12.72;22.33
58973;BME280;44750;52.040;7.472;2023-03-21T14:12:37;100034.38;;;12.53;24.08
58973;BME280;44750;52.040;7.472;2023-03-21T14:17:54;100035.66;;;12.80;25.71
58973;BME280;44750;52.040;7.472;2023-03-21T14:22:55;100011.41;;;12.79;29.83
58973;BME280;44750;52.040;7.472;2023-03-21T14:27:57;100005.06;;;13.01;32.51
58973;BME280;44750;52.040;7.472;2023-03-21T14:33:15;99973.84;;;13.12;36.80
58973;BME280;44750;52.040;7.472;2023-03-21T14:38:23;99923.84;;;13.07;46.38
58973;BME280;44750;52.040;7.472;2023-03-21T14:43:26;99868.47;;;13.08;59.78
58973;BME280;44750;52.040;7.472;2023-03-21T14:48:31;99827.16;;;13.34;73.79
58973;BME280;44750;52.040;7.472;2023-03-21T14:53:37;99738.50;;;13.11;88.04
58973;BME280;44750;52.040;7.472;2023-03-21T14:58:40;99704.00;;;13.33;95.88
58973;BME280;44750;52.040;7.472;2023-03-21T15:03:44;99617.88;;;13.05;100.00
58973;BME280;44750;52.040;7.472;2023-03-21T15:08:59;99581.16;;;13.16;100.00
58973;BME280;44750;52.040;7.472;2023-03-21T15:14:01;99531.38;;;13.09;100.00
58973;BME280;44750;52.040;7.472;2023-03-21T15:19:03;99476.72;;;12.91;100.00
58973;BME280;44750;52.040;7.472;2023-03-21T15:24:25;99472.16;;;12.98;100.00
58973;BME280;44750;52.040;7.472;2023-03-21T15:29:26;99465.94;;;13.04;100.00
58973;BME280;44750;52.040;7.472;2023-03-21T15:34:28;99433.91;;;12.99;100.00
58973;BME280;44750;52.040;7.472;2023-03-21T15:39:28;99397.31;;;12.88;100.00
58973;BME280;44750;52.040;7.472;2023-03-21T15:44:30;99392.06;;;12.87;100.00
58973;BME280;44750;52.040;7.472;2023-03-21T15:49:32;99446.25;;;13.02;100.00
58973;BME280;44750;52.040;7.472;2023-03-21T15:54:41;99467.00;;;13.10;100.00
58973;BME280;44750;52.040;7.472;2023-03-21T15:59:42;99479.94;;;13.36;100.00
58973;BME280;44750;52.040;7.472;2023-03-21T16:04:59;99471.31;;;13.32;100.00
58973;BME280;44750;52.040;7.472;2023-03-21T16:10:03;99471.38;;;13.39;100.00
58973;BME280;44750;52.040;7.472;2023-03-21T16:15:03;99454.38;;;13.30;100.00
58973;BME280;44750;52.040;7.472;2023-03-21T16:20:20;99453.94;;;13.27;100.00
58973;BME280;44750;52.040;7.472;2023-03-21T16:25:21;99441.66;;;12.96;100.00
58973;BME280;44750;52.040;7.472;2023-03-21T16:33:52;99486.88;;;12.82;100.00
58973;BME280;44750;52.040;7.472;2023-03-21T16:38:53;99485.41;;;12.79;100.00
58973;BME280;44750;52.040;7.472;2023-03-21T16:43:54;99479.19;;;12.85;100.00
58973;BME280;44750;52.040;7.472;2023-03-21T16:48:55;99480.88;;;12.86;100.00
58973;BME280;44750;52.040;7.472;2023-03-21T16:53:56;99457.38;;;12.72;100.00
58973;BME280;44750;52.040;7.472;2023-03-21T16:58:57;99473.00;;;12.70;100.00
58973;BME280;44750;52.040;7.472;2023-03-21T17:03:57;99471.09;;;12.64;100.00
58973;BME280;44750;52.040;7.472;2023-03-21T17:08:58;99495.28;;;12.59;100.00
58973;BME280;44750;52.040;7.472;2023-03-21T17:13:58;99506.53;;;12.56;100.00
58973;BME280;44750;52.040;7.472;2023-03-21T17:18:58;99498.50;;;12.47;100.00
58973;BME280;44750;52.040;7.472;2023-03-21T17:23:59;99514.41;;;12.50;100.00
58973;BME280;44750;52.040;7.472;2023-03-21T17:28:59;99514.16;;;12.45;100.00
58973;BME280;44750;52.040;7.472;2023-03-21T17:33:59;99540.50;;;12.51;100.00
58973;BME280;44750;52.040;7.472;2023-03-21T17:39:03;99543.16;;;12.45;100.00
58973;BME280;44750;52.040;7.472;2023-03-21T17:44:04;99549.72;;;12.50;100.00
58973;BME280;44750;52.040;7.472;2023-03-21T17:49:05;99537.31;;;12.41;100.00
58973;BME280;44750;52.040;7.472;2023-03-21T17:54:05;99553.59;;;12.41;100.00
58973;BME280;44750;52.040;7.472;2023-03-21T17:59:07;99570.22;;;12.38;100.00
58973;BME280;44750;52.040;7.472;2023-03-21T18:04:10;99554.53;;;12.33;100.00
58973;BME280;44750;52.040;7.472;2023-03-21T18:09:10;99571.38;;;12.29;100.00
58973;BME280;44750;52.040;7.472;2023-03-21T18:14:11;99580.84;;;12.33;100.00
58973;BME280;44750;52.040;7.472;2023-03-21T18:19:12;99574.69;;;12.24;100.00
58973;BME280;44750;52.040;7.472;2023-03-21T18:24:13;99600.72;;;12.18;100.00
58973;BME280;44750;52.040;7.472;2023-03-21T18:29:14;99618.22;;;12.16;100.00
58973;BME280;44750;52.040;7.472;2023-03-21T18:34:14;99639.72;;;12.17;100.00
58973;BME280;44750;52.040;7.472;2023-03-21T18:39:14;99667.06;;;12.16;100.00
58973;BME280;44750;52.040;7.472;2023-03-21T18:44:14;99672.84;;;11.98;100.00
58973;BME280;44750;52.040;7.472;2023-03-21T18:49:16;99689.78;;;12.00;100.00
58973;BME280;44750;52.040;7.472;2023-03-21T18:54:16;99692.56;;;11.92;96.92
58973;BME280;44750;52.040;7.472;2023-03-21T18:59:17;99689.69;;;11.78;93.19
58973;BME280;44750;52.040;7.472;2023-03-21T19:04:18;99707.78;;;11.78;90.24
58973;BME280;44750;52.040;7.472;2023-03-21T19:09:19;99722.38;;;11.77;87.68
58973;BME280;44750;52.040;7.472;2023-03-21T19:14:19;99733.06;;;11.78;85.34
58973;BME280;44750;52.040;7.472;2023-03-21T19:19:19;99749.22;;;11.71;83.80
58973;BME280;44750;52.040;7.472;2023-03-21T19:24:20;99758.72;;;11.67;81.23
58973;BME280;44750;52.040;7.472;2023-03-21T19:29:20;99761.28;;;11.69;79.07
58973;BME280;44750;52.040;7.472;2023-03-21T19:34:20;99764.41;;;11.58;77.91
58973;BME280;44750;52.040;7.472;2023-03-21T19:39:20;99775.56;;;11.63;75.00
58973;BME280;44750;52.040;7.472;2023-03-21T19:44:21;99772.34;;;11.59;73.11
58973;BME280;44750;52.040;7.472;2023-03-21T19:49:21;99766.09;;;11.59;71.72
58973;BME280;44750;52.040;7.472;2023-03-21T19:54:22;99782.91;;;11.54;70.07
58973;BME280;44750;52.040;7.472;2023-03-21T19:59:22;99764.19;;;11.44;69.57
58973;BME280;44750;52.040;7.472;2023-03-21T20:04:23;99764.06;;;11.37;68.80
58973;BME280;44750;52.040;7.472;2023-03-21T20:09:24;99766.34;;;11.26;68.02
58973;BME280;44750;52.040;7.472;2023-03-21T20:14:25;99770.09;;;11.25;66.65
58973;BME280;44750;52.040;7.472;2023-03-21T20:19:25;99773.97;;;11.30;65.52
58973;BME280;44750;52.040;7.472;2023-03-21T20:24:25;99776.81;;;11.29;65.43
58973;BME280;44750;52.040;7.472;2023-03-21T20:29:26;99761.00;;;11.17;64.94
58973;BME280;44750;52.040;7.472;2023-03-21T20:34:26;99771.78;;;11.26;64.38
58973;BME280;44750;52.040;7.472;2023-03-21T20:39:26;99778.28;;;11.16;64.44
58973;BME280;44750;52.040;7.472;2023-03-21T20:44:29;99786.47;;;11.08;63.62
58973;BME280;44750;52.040;7.472;2023-03-21T20:49:30;99783.81;;;11.00;62.79
58973;BME280;44750;52.040;7.472;2023-03-21T20:54:31;99788.09;;;10.94;61.96
58973;BME280;44750;52.040;7.472;2023-03-21T20:59:31;99768.97;;;10.87;60.92
58973;BME280;44750;52.040;7.472;2023-03-21T21:04:32;99770.34;;;10.83;60.16
58973;BME280;44750;52.040;7.472;2023-03-21T21:09:32;99770.41;;;10.75;59.22
58973;BME280;44750;52.040;7.472;2023-03-21T21:14:32;99782.78;;;10.69;57.45
58973;BME280;44750;52.040;7.472;2023-03-21T21:19:33;99798.19;;;10.69;55.76
58973;BME280;44750;52.040;7.472;2023-03-21T21:24:33;99802.25;;;10.65;54.61
58973;BME280;44750;52.040;7.472;2023-03-21T21:29:33;99816.47;;;10.67;52.42
58973;BME280;44750;52.040;7.472;2023-03-21T21:34:33;99815.63;;;10.66;51.47
58973;BME280;44750;52.040;7.472;2023-03-21T21:39:34;99821.50;;;10.70;48.52
58973;BME280;44750;52.040;7.472;2023-03-21T21:44:34;99821.38;;;10.63;47.31
58973;BME280;44750;52.040;7.472;2023-03-21T21:49:34;99839.81;;;10.68;43.91
58973;BME280;44750;52.040;7.472;2023-03-21T21:54:35;99823.44;;;10.61;43.12
58973;BME280;44750;52.040;7.472;2023-03-21T21:59:35;99840.00;;;10.58;40.84
58973;BME280;44750;52.040;7.472;2023-03-21T22:04:35;99854.41;;;10.50;39.03
58973;BME280;44750;52.040;7.472;2023-03-21T22:09:35;99849.69;;;10.44;36.76
58973;BME280;44750;52.040;7.472;2023-03-21T22:14:36;99873.50;;;10.49;34.75
58973;BME280;44750;52.040;7.472;2023-03-21T22:19:36;99869.31;;;10.46;33.32
58973;BME280;44750;52.040;7.472;2023-03-21T22:24:36;99890.09;;;10.46;31.97
58973;BME280;44750;52.040;7.472;2023-03-21T22:29:36;99899.41;;;10.43;30.36
58973;BME280;44750;52.040;7.472;2023-03-21T22:34:37;99900.75;;;10.47;28.56
58973;BME280;44750;52.040;7.472;2023-03-21T22:39:37;99904.31;;;10.48;26.88
58973;BME280;44750;52.040;7.472;2023-03-21T22:44:37;99912.44;;;10.48;26.41
58973;BME280;44750;52.040;7.472;2023-03-21T22:49:38;99911.25;;;10.42;25.50
58973;BME280;44750;52.040;7.472;2023-03-21T22:54:38;99932.38;;;10.47;23.94
58973;BME280;44750;52.040;7.472;2023-03-21T22:59:39;99926.63;;;10.42;23.31
58973;BME280;44750;52.040;7.472;2023-03-21T23:04:39;99919.88;;;10.37;23.19
58973;BME280;44750;52.040;7.472;2023-03-21T23:09:39;99938.81;;;10.46;21.65
58973;BME280;44750;52.040;7.472;2023-03-21T23:14:39;99937.63;;;10.40;22.26
58973;BME280;44750;52.040;7.472;2023-03-21T23:19:40;99939.34;;;10.41;21.26
58973;BME280;44750;52.040;7.472;2023-03-21T23:24:40;99949.28;;;10.49;20.75
58973;BME280;44750;52.040;7.472;2023-03-21T23:29:40;99947.94;;;10.45;20.81
58973;BME280;44750;52.040;7.472;2023-03-21T23:34:40;99928.69;;;10.40;20.25
58973;BME280;44750;52.040;7.472;2023-03-21T23:39:41;99950.50;;;10.46;18.74
58973;BME280;44750;52.040;7.472;2023-03-21T23:44:41;99949.97;;;10.43;18.35
58973;BME280;44750;52.040;7.472;2023-03-21T23:49:44;99947.78;;;10.46;18.23
58973;BME280;44750;52.040;7.472;2023-03-21T23:54:44;99948.63;;;10.39;18.30
58973;BME280;44750;52.040;7.472;2023-03-21T23:59:45;99937.28;;;10.35;18.05
